Airport ICAO


18:36 UTC

17°C

Clear skies


An affordable passengers' Moving Map for your aircraft. Made for the iPad and the iPhone
More information here

LFPM Villaroche


Melun FRANCE   VFR CAVOK


METAR LFPM 171830Z AUTO 34008KT CAVOK 17/12 Q1018 0h06min





NOTAMS

OPEN